createdAt,value
2023-02-11T00:01:49.541Z,33.99
2023-02-11T00:04:15.850Z,34.03
2023-02-11T00:06:42.142Z,34.25
2023-02-11T00:09:08.415Z,34.47
2023-02-11T00:11:34.670Z,34.58
2023-02-11T00:14:00.954Z,33.86
2023-02-11T00:16:27.310Z,34.13
2023-02-11T00:18:53.639Z,34.08
2023-02-11T00:21:19.986Z,33.81
2023-02-11T00:23:46.256Z,34.19
2023-02-11T00:26:12.546Z,33.55
2023-02-11T00:28:38.809Z,34.02
2023-02-11T00:31:05.276Z,34.34
2023-02-11T00:33:31.585Z,34.29
2023-02-11T00:35:57.839Z,34.41
2023-02-11T00:38:24.092Z,34.41
2023-02-11T00:40:50.364Z,34.29
2023-02-11T00:43:16.649Z,34.26
2023-02-11T00:45:42.926Z,33.61
2023-02-11T00:48:09.201Z,33.41
2023-02-11T00:50:35.497Z,33.59
2023-02-11T00:53:01.760Z,34.46
2023-02-11T00:55:28.037Z,34.17
2023-02-11T00:57:54.317Z,34.21
2023-02-11T01:00:20.589Z,33.30
2023-02-11T01:02:46.877Z,34.02
2023-02-11T01:05:13.274Z,33.82
2023-02-11T01:07:39.576Z,34.05
2023-02-11T01:10:05.840Z,33.99
2023-02-11T01:12:34.012Z,33.93
2023-02-11T01:15:02.232Z,34.04
2023-02-11T01:17:28.489Z,33.88
2023-02-11T01:19:54.775Z,32.84
2023-02-11T01:22:21.044Z,33.23
2023-02-11T01:24:47.330Z,33.60
2023-02-11T01:27:13.595Z,33.22
2023-02-11T01:29:39.867Z,32.86
2023-02-11T01:32:06.163Z,32.95
2023-02-11T01:34:32.454Z,32.63
2023-02-11T01:36:58.736Z,33.06
2023-02-11T01:39:25.011Z,32.76
2023-02-11T01:41:51.273Z,34.14
2023-02-11T01:44:17.545Z,33.89
2023-02-11T01:46:43.908Z,32.93
2023-02-11T01:49:10.286Z,32.25
2023-02-11T01:51:36.602Z,32.85
2023-02-11T01:54:02.858Z,33.20
2023-02-11T01:56:29.131Z,33.93
2023-02-11T01:58:55.422Z,33.32
2023-02-11T02:01:21.738Z,34.87
2023-02-11T02:03:48.066Z,35.56
2023-02-11T02:06:14.389Z,34.86
2023-02-11T02:08:40.709Z,34.50
2023-02-11T02:11:07.005Z,34.26
2023-02-11T02:13:33.261Z,35.09
2023-02-11T02:15:59.575Z,35.67
2023-02-11T02:18:25.869Z,35.58
2023-02-11T02:20:52.144Z,36.35
2023-02-11T02:23:18.404Z,36.77
2023-02-11T02:25:44.682Z,36.32
2023-02-11T02:28:10.964Z,37.08
2023-02-11T02:30:37.286Z,36.75
2023-02-11T02:33:16.777Z,37.48
2023-02-11T02:35:48.301Z,36.95
2023-02-11T02:38:14.750Z,37.19
2023-02-11T02:40:41.011Z,37.35
2023-02-11T02:43:07.282Z,37.68
2023-02-11T02:45:34.605Z,36.94
2023-02-11T02:48:00.867Z,37.83
2023-02-11T02:50:27.157Z,37.54
2023-02-11T02:52:53.437Z,38.06
2023-02-11T02:55:19.710Z,38.11
2023-02-11T02:57:45.973Z,38.77
2023-02-11T03:00:12.246Z,37.78
2023-02-11T03:02:38.512Z,37.89
2023-02-11T03:05:04.789Z,37.71
2023-02-11T03:07:31.077Z,39.15
2023-02-11T03:09:57.351Z,39.13
2023-02-11T03:12:23.653Z,39.56
2023-02-11T03:14:49.937Z,38.98
2023-02-11T03:17:16.216Z,38.89
2023-02-11T03:19:42.482Z,37.63
2023-02-11T03:22:08.767Z,37.82
2023-02-11T03:24:35.020Z,37.89
2023-02-11T03:27:01.302Z,37.63
2023-02-11T03:29:27.710Z,37.66
2023-02-11T03:31:54.057Z,37.74
2023-02-11T03:34:20.330Z,38.00
2023-02-11T03:36:46.608Z,38.62
2023-02-11T03:39:12.885Z,38.66
2023-02-11T03:41:39.180Z,37.96
2023-02-11T03:44:05.477Z,38.30
2023-02-11T03:46:31.743Z,38.51
2023-02-11T03:48:58.008Z,37.62
2023-02-11T03:51:24.388Z,37.97
2023-02-11T03:53:50.664Z,38.23
2023-02-11T03:56:16.963Z,37.70
2023-02-11T03:58:43.218Z,38.35
2023-02-11T04:01:09.539Z,38.60
2023-02-11T04:03:35.962Z,36.73
2023-02-11T04:06:02.282Z,38.86
2023-02-11T04:08:28.555Z,39.22
2023-02-11T04:10:54.830Z,38.33
2023-02-11T04:13:21.098Z,38.89
2023-02-11T04:15:49.006Z,39.12
2023-02-11T04:18:15.513Z,38.87
2023-02-11T04:20:41.779Z,38.82
2023-02-11T04:23:08.074Z,39.74
2023-02-11T04:25:34.452Z,40.25
2023-02-11T04:28:00.756Z,39.25
2023-02-11T04:30:27.064Z,38.65
2023-02-11T04:32:53.343Z,36.89
2023-02-11T04:35:19.620Z,38.09
2023-02-11T04:37:45.889Z,38.68
2023-02-11T04:40:12.158Z,39.18
2023-02-11T04:42:38.431Z,39.66
2023-02-11T04:45:04.707Z,40.01
2023-02-11T04:47:30.970Z,39.33
2023-02-11T04:49:57.240Z,39.65
2023-02-11T04:52:23.494Z,40.09
2023-02-11T04:54:49.768Z,40.42
2023-02-11T04:57:16.032Z,40.60
2023-02-11T04:59:42.320Z,40.62
2023-02-11T05:02:08.634Z,40.78
2023-02-11T05:04:34.997Z,41.39
2023-02-11T05:07:01.316Z,41.20
2023-02-11T05:09:27.592Z,40.39
2023-02-11T05:11:53.841Z,40.36
2023-02-11T05:14:20.101Z,40.37
2023-02-11T05:16:46.399Z,40.32
2023-02-11T05:19:12.769Z,39.95
2023-02-11T05:21:40.116Z,40.95
2023-02-11T05:24:08.618Z,41.65
2023-02-11T05:26:34.898Z,42.77
2023-02-11T05:29:01.155Z,44.06
2023-02-11T05:31:27.435Z,41.12
2023-02-11T05:33:53.738Z,40.45
2023-02-11T05:36:19.999Z,39.99
2023-02-11T05:38:46.277Z,39.53
2023-02-11T05:41:12.557Z,40.05
2023-02-11T05:43:38.837Z,40.77
2023-02-11T05:46:05.223Z,41.73
2023-02-11T05:48:31.571Z,41.12
2023-02-11T05:50:57.838Z,39.95
2023-02-11T05:53:24.211Z,40.96
2023-02-11T05:55:50.784Z,40.67
2023-02-11T05:58:17.253Z,40.94
2023-02-11T06:00:43.537Z,40.78
2023-02-11T06:03:09.820Z,41.74
2023-02-11T06:05:36.102Z,41.04
2023-02-11T06:08:02.395Z,42.26
2023-02-11T06:10:28.664Z,42.34
2023-02-11T06:12:54.952Z,43.00
2023-02-11T06:15:21.267Z,41.95
2023-02-11T06:17:47.548Z,41.81
2023-02-11T06:20:13.839Z,41.12
2023-02-11T06:22:40.117Z,40.43
2023-02-11T06:25:06.407Z,39.57
2023-02-11T06:27:32.702Z,39.66
2023-02-11T06:29:59.003Z,39.84
2023-02-11T06:32:43.010Z,39.88
2023-02-11T06:35:12.087Z,39.60
2023-02-11T06:37:38.639Z,40.18
2023-02-11T06:40:04.931Z,40.84
2023-02-11T06:42:31.211Z,40.90
2023-02-11T06:44:57.494Z,41.09
2023-02-11T06:47:23.810Z,41.30
2023-02-11T06:49:50.066Z,41.44
2023-02-11T06:52:16.343Z,40.93
2023-02-11T06:54:42.633Z,41.81
2023-02-11T06:57:08.908Z,42.63
2023-02-11T06:59:35.255Z,42.33
2023-02-11T07:02:01.635Z,41.97
2023-02-11T07:04:27.932Z,42.13
2023-02-11T07:06:54.248Z,40.82
2023-02-11T07:09:20.516Z,40.97
2023-02-11T07:11:46.801Z,41.17
2023-02-11T07:14:13.080Z,41.08
2023-02-11T07:16:39.445Z,41.63
2023-02-11T07:19:05.828Z,40.91
2023-02-11T07:21:32.123Z,41.85
2023-02-11T07:23:58.414Z,42.47
2023-02-11T07:26:24.657Z,43.14
2023-02-11T07:28:50.922Z,43.11
2023-02-11T07:31:17.289Z,42.81
2023-02-11T07:33:43.677Z,42.56
2023-02-11T07:36:09.952Z,43.20
2023-02-11T07:38:36.218Z,42.55
2023-02-11T07:41:02.521Z,44.37
2023-02-11T07:43:28.824Z,45.53
2023-02-11T07:45:55.090Z,43.56
2023-02-11T07:48:21.386Z,44.17
2023-02-11T07:50:47.646Z,43.44
2023-02-11T07:53:13.926Z,43.59
2023-02-11T07:55:40.178Z,44.15
2023-02-11T07:58:06.442Z,43.95
2023-02-11T08:00:32.733Z,43.16
2023-02-11T08:02:59.017Z,43.77
2023-02-11T08:05:25.304Z,43.60
2023-02-11T08:07:51.647Z,43.82
2023-02-11T08:10:17.900Z,42.31
2023-02-11T08:12:44.180Z,41.14
2023-02-11T08:15:10.465Z,42.01
2023-02-11T08:17:36.724Z,41.26
2023-02-11T08:20:02.998Z,40.46
2023-02-11T08:22:29.339Z,41.28
2023-02-11T08:24:55.619Z,40.63
2023-02-11T08:27:21.880Z,41.73
2023-02-11T08:29:48.157Z,41.65
2023-02-11T08:32:14.475Z,42.00
2023-02-11T08:34:40.810Z,42.47
2023-02-11T08:37:07.080Z,43.43
2023-02-11T08:39:33.338Z,43.42
2023-02-11T08:41:59.606Z,42.74
2023-02-11T08:44:25.877Z,44.17
2023-02-11T08:46:52.189Z,43.71
2023-02-11T08:49:18.450Z,42.87
2023-02-11T08:51:44.727Z,43.59
2023-02-11T08:54:11.013Z,43.81
2023-02-11T08:56:37.261Z,43.59
2023-02-11T08:59:03.572Z,44.47
2023-02-11T09:01:29.933Z,44.61
2023-02-11T09:03:56.241Z,45.13
2023-02-11T09:06:22.629Z,44.48
2023-02-11T09:08:48.927Z,44.40
2023-02-11T09:11:15.227Z,45.15
2023-02-11T09:13:41.507Z,44.39
2023-02-11T09:16:07.816Z,44.24
2023-02-11T09:57:28.636Z,41.11
2023-02-11T09:59:55.536Z,44.43
2023-02-11T10:02:21.962Z,44.13
2023-02-11T10:04:48.245Z,43.52
2023-02-11T10:07:14.495Z,43.34
2023-02-11T10:09:40.770Z,44.16
2023-02-11T10:12:07.030Z,45.06
2023-02-11T10:14:33.310Z,45.69
2023-02-11T10:16:59.621Z,45.44
2023-02-11T10:19:25.906Z,44.09
2023-02-11T10:21:52.287Z,43.59
2023-02-11T10:24:18.613Z,43.57
2023-02-11T10:26:44.881Z,44.71
2023-02-11T10:29:11.177Z,44.67
2023-02-11T10:31:37.596Z,45.12
2023-02-11T10:34:03.969Z,43.75
2023-02-11T10:36:30.240Z,44.13
2023-02-11T10:38:56.519Z,43.47
2023-02-11T10:41:22.797Z,43.92
2023-02-11T10:43:49.075Z,43.82
2023-02-11T10:46:15.412Z,43.83
2023-02-11T10:48:41.699Z,43.45
2023-02-11T10:51:07.985Z,43.64
2023-02-11T10:53:34.246Z,45.33
2023-02-11T10:56:00.594Z,45.08
2023-02-11T10:58:26.872Z,45.48
2023-02-11T11:00:53.602Z,45.57
2023-02-11T11:03:20.045Z,45.87
2023-02-11T11:05:46.339Z,45.07
2023-02-11T11:08:12.632Z,45.69
2023-02-11T11:10:38.930Z,46.75
2023-02-11T11:13:05.252Z,45.69
2023-02-11T11:15:31.547Z,45.27
2023-02-11T11:18:11.355Z,46.65
2023-02-11T11:20:44.173Z,46.87
2023-02-11T11:23:10.464Z,46.61
2023-02-11T11:25:36.780Z,46.41
2023-02-11T11:28:03.077Z,45.85
2023-02-11T11:30:29.376Z,46.35
2023-02-11T11:32:55.693Z,47.29
2023-02-11T11:35:21.995Z,47.37
2023-02-11T11:37:48.270Z,46.58
2023-02-11T11:40:14.564Z,45.82
2023-02-11T11:42:40.845Z,46.11
2023-02-11T11:45:07.145Z,45.49
2023-02-11T11:47:33.430Z,45.79
2023-02-11T11:49:59.710Z,45.26
2023-02-11T11:52:26.010Z,45.80
2023-02-11T11:54:52.307Z,45.78
2023-02-11T11:57:18.778Z,44.83
2023-02-11T11:59:45.098Z,44.06
2023-02-11T12:02:11.530Z,45.49
2023-02-11T12:04:37.848Z,44.18
2023-02-11T12:07:04.124Z,48.52
2023-02-11T12:09:30.490Z,44.44
2023-02-11T12:11:56.740Z,43.91
2023-02-11T12:14:23.018Z,43.76
2023-02-11T12:16:49.429Z,42.71
2023-02-11T12:19:15.779Z,42.22
2023-02-11T12:21:42.186Z,41.87
2023-02-11T12:24:08.447Z,42.52
2023-02-11T12:26:34.722Z,42.12
2023-02-11T12:29:01.049Z,41.62
2023-02-11T12:31:27.416Z,40.86
2023-02-11T12:33:53.750Z,41.43
2023-02-11T12:36:20.015Z,40.65
2023-02-11T12:38:46.342Z,41.07
2023-02-11T12:41:12.632Z,41.61
2023-02-11T12:43:38.885Z,40.95
2023-02-11T12:46:05.229Z,41.29
2023-02-11T12:48:33.044Z,41.52
2023-02-11T12:51:00.392Z,41.60
2023-02-11T12:53:26.717Z,40.98
2023-02-11T12:55:52.970Z,39.46
2023-02-11T12:58:19.233Z,39.84
2023-02-11T13:00:45.519Z,39.49
2023-02-11T13:03:11.832Z,39.80
2023-02-11T13:05:38.135Z,39.29
2023-02-11T13:08:04.421Z,40.27
2023-02-11T13:10:30.681Z,42.04
2023-02-11T13:12:56.969Z,41.33
2023-02-11T13:15:23.234Z,41.34
2023-02-11T13:17:49.518Z,41.04
2023-02-11T13:20:15.811Z,39.24
2023-02-11T13:22:42.112Z,37.83
2023-02-11T13:25:08.377Z,36.75
2023-02-11T13:27:34.659Z,36.35
2023-02-11T13:30:04.073Z,36.63
2023-02-11T13:32:30.558Z,34.32
2023-02-11T13:34:56.816Z,33.59
2023-02-11T13:37:23.107Z,33.79
2023-02-11T13:39:49.373Z,32.71
2023-02-11T13:42:15.656Z,33.80
2023-02-11T13:44:41.941Z,33.07
2023-02-11T13:47:08.213Z,32.76
2023-02-11T13:49:34.565Z,33.40
2023-02-11T13:52:00.885Z,32.89
2023-02-11T13:54:27.178Z,32.38
2023-02-11T13:56:53.476Z,32.88
2023-02-11T13:59:19.786Z,33.40
2023-02-11T14:01:46.088Z,32.55
2023-02-11T14:04:12.397Z,32.56
2023-02-11T14:06:38.803Z,33.46
2023-02-11T14:09:05.087Z,32.63
2023-02-11T14:11:31.389Z,33.04
2023-02-11T14:13:57.686Z,32.92
2023-02-11T14:16:36.886Z,32.90
2023-02-11T14:19:03.513Z,32.51
2023-02-11T14:21:29.813Z,32.61
2023-02-11T14:23:56.080Z,32.85
2023-02-11T14:26:22.465Z,32.44
2023-02-11T14:28:48.771Z,32.55
2023-02-11T14:31:15.123Z,33.44
2023-02-11T14:33:41.430Z,33.19
2023-02-11T14:36:07.704Z,32.26
2023-02-11T14:38:33.986Z,32.06
2023-02-11T14:41:00.294Z,32.21
2023-02-11T14:43:29.334Z,32.46
2023-02-11T14:45:55.959Z,32.52
2023-02-11T14:48:22.310Z,33.11
2023-02-11T14:50:48.744Z,33.44
2023-02-11T14:53:15.161Z,32.91
2023-02-11T14:55:41.452Z,32.50
2023-02-11T14:58:07.710Z,33.32
2023-02-11T15:00:33.990Z,32.81
2023-02-11T15:03:00.355Z,32.72
2023-02-11T15:05:26.662Z,32.74
2023-02-11T15:07:52.974Z,31.80
2023-02-11T15:10:19.303Z,31.86
2023-02-11T15:12:45.579Z,32.47
2023-02-11T15:15:11.878Z,31.39
2023-02-11T15:17:38.205Z,31.39
2023-02-11T15:20:04.515Z,31.26
2023-02-11T15:22:30.830Z,31.21
2023-02-11T15:24:57.102Z,30.71
2023-02-11T15:27:23.392Z,31.19
2023-02-11T15:29:49.703Z,30.56
2023-02-11T15:32:16.148Z,30.98
2023-02-11T15:34:42.634Z,30.75
2023-02-11T15:37:08.992Z,30.28
2023-02-11T15:39:35.392Z,31.25
2023-02-11T15:42:01.688Z,31.40
2023-02-11T15:44:27.971Z,30.97
2023-02-11T15:46:54.268Z,30.75
2023-02-11T15:49:20.576Z,32.09
2023-02-11T15:51:46.842Z,33.26
2023-02-11T15:54:13.170Z,32.83
2023-02-11T15:56:39.481Z,33.04
2023-02-11T15:59:05.775Z,33.28
2023-02-11T16:01:33.900Z,32.73
2023-02-11T16:04:00.482Z,32.82
2023-02-11T16:06:26.811Z,33.37
2023-02-11T16:08:53.168Z,34.15
2023-02-11T16:11:19.438Z,33.80
2023-02-11T16:13:45.722Z,33.92
2023-02-11T16:16:12.024Z,33.79
2023-02-11T16:18:39.783Z,35.02
2023-02-11T16:21:06.488Z,35.65
2023-02-11T16:23:32.793Z,35.16
2023-02-11T16:25:59.053Z,34.17
2023-02-11T16:28:25.399Z,34.44
2023-02-11T16:30:52.010Z,34.33
2023-02-11T16:33:18.503Z,34.11
2023-02-11T16:35:44.765Z,33.30
2023-02-11T16:38:11.167Z,33.89
2023-02-11T16:40:37.446Z,34.09
2023-02-11T16:43:03.722Z,34.06
2023-02-11T16:45:30.024Z,35.48
2023-02-11T16:47:56.310Z,35.81
2023-02-11T16:50:22.567Z,35.32
2023-02-11T16:52:48.893Z,35.83
2023-02-11T16:55:15.391Z,35.46
2023-02-11T16:57:41.716Z,35.90
2023-02-11T17:00:07.984Z,37.04
2023-02-11T17:02:34.296Z,36.75
2023-02-11T17:05:00.568Z,36.16
2023-02-11T17:07:26.852Z,36.09
2023-02-11T17:09:53.154Z,36.27
2023-02-11T17:12:19.446Z,36.82
2023-02-11T17:14:45.714Z,36.13
2023-02-11T17:17:12.040Z,36.75
2023-02-11T17:19:38.333Z,37.05
2023-02-11T17:22:04.598Z,35.30
2023-02-11T17:24:30.894Z,35.31
2023-02-11T17:26:57.173Z,36.44
2023-02-11T17:29:23.460Z,35.88
2023-02-11T17:31:49.812Z,35.18
2023-02-11T17:34:16.102Z,35.43
2023-02-11T17:36:42.357Z,34.93
2023-02-11T17:39:08.683Z,33.54
2023-02-11T17:41:34.997Z,32.82
2023-02-11T17:44:01.262Z,32.17
2023-02-11T17:46:27.592Z,31.76
2023-02-11T17:48:53.896Z,30.55
2023-02-11T17:51:20.208Z,29.47
2023-02-11T17:53:46.474Z,27.80
2023-02-11T17:56:12.737Z,26.82
2023-02-11T17:58:39.032Z,26.67
2023-02-11T18:01:05.357Z,26.81
2023-02-11T18:03:31.648Z,26.79
2023-02-11T18:05:57.965Z,27.80
2023-02-11T18:08:24.250Z,27.63
2023-02-11T18:10:50.513Z,27.57
2023-02-11T18:13:16.787Z,27.24
2023-02-11T18:15:43.053Z,28.05
2023-02-11T18:18:09.350Z,27.14
2023-02-11T18:20:35.610Z,26.81
2023-02-11T18:23:01.909Z,27.16
2023-02-11T18:25:28.171Z,27.32
2023-02-11T18:27:54.435Z,27.71
2023-02-11T18:30:20.699Z,27.57
2023-02-11T18:32:46.989Z,28.00
2023-02-11T18:35:14.924Z,28.11
2023-02-11T18:37:41.380Z,28.38
2023-02-11T18:40:07.656Z,30.12
2023-02-11T18:42:33.944Z,32.70
2023-02-11T18:45:00.292Z,36.06
2023-02-11T18:47:26.589Z,37.72
2023-02-11T18:49:52.867Z,39.11
2023-02-11T18:52:19.151Z,40.69
2023-02-11T18:54:45.430Z,41.08
2023-02-11T18:57:11.713Z,42.98
2023-02-11T18:59:37.981Z,42.28
2023-02-11T19:02:04.250Z,43.52
2023-02-11T19:04:30.590Z,43.19
2023-02-11T19:06:56.918Z,42.90
2023-02-11T19:09:23.209Z,42.30
2023-02-11T19:11:49.526Z,41.71
2023-02-11T19:14:15.801Z,41.27
2023-02-11T19:16:42.152Z,42.84
2023-02-11T19:19:08.424Z,44.27
2023-02-11T19:21:34.700Z,44.32
2023-02-11T19:24:01.014Z,45.12
2023-02-11T19:26:27.288Z,44.28
2023-02-11T19:28:53.589Z,43.91
2023-02-11T19:31:19.924Z,44.72
2023-02-11T19:33:46.201Z,43.51
2023-02-11T19:36:12.483Z,42.92
2023-02-11T19:38:38.756Z,41.83
2023-02-11T19:41:05.057Z,42.51
2023-02-11T19:43:31.340Z,43.98
2023-02-11T19:45:57.666Z,44.01
2023-02-11T19:48:24.030Z,44.77
2023-02-11T19:50:50.318Z,44.85
2023-02-11T19:53:16.590Z,48.00
2023-02-11T19:55:42.843Z,47.09
2023-02-11T19:58:09.131Z,46.43
2023-02-11T20:00:35.420Z,45.80
2023-02-11T20:03:01.785Z,43.70
2023-02-11T20:05:28.080Z,43.79
2023-02-11T20:07:54.339Z,43.97
2023-02-11T20:10:20.609Z,45.65
2023-02-11T20:12:46.896Z,45.55
2023-02-11T20:15:13.161Z,46.72
2023-02-11T20:17:39.409Z,47.78
2023-02-11T20:20:05.686Z,47.37
2023-02-11T20:22:31.970Z,47.51
2023-02-11T20:24:58.231Z,48.57
2023-02-11T20:27:24.526Z,48.27
2023-02-11T20:29:50.814Z,48.81
2023-02-11T20:32:17.108Z,48.53
2023-02-11T20:34:43.503Z,48.65
2023-02-11T20:37:09.767Z,48.77
2023-02-11T20:39:36.044Z,49.40
2023-02-11T20:42:02.339Z,49.90
2023-02-11T20:44:28.607Z,50.97
2023-02-11T20:46:55.008Z,51.18
2023-02-11T20:49:21.295Z,50.76
2023-02-11T20:51:47.562Z,50.30
2023-02-11T20:54:13.844Z,50.35
2023-02-11T20:56:40.129Z,48.88
2023-02-11T20:59:06.411Z,48.89
2023-02-11T21:01:32.703Z,49.14
2023-02-11T21:03:59.007Z,49.14
2023-02-11T21:06:25.285Z,50.97
2023-02-11T21:08:51.558Z,49.54
2023-02-11T21:11:17.839Z,50.53
2023-02-11T21:13:44.135Z,49.38
2023-02-11T21:16:10.549Z,48.75
2023-02-11T21:18:36.900Z,48.64
2023-02-11T21:21:06.039Z,49.17
2023-02-11T21:23:33.213Z,49.61
2023-02-11T21:25:59.490Z,49.42
2023-02-11T21:28:25.836Z,50.45
2023-02-11T21:30:52.344Z,49.90
2023-02-11T21:33:18.719Z,51.37
2023-02-11T21:35:45.017Z,49.87
2023-02-11T21:38:11.329Z,49.11
2023-02-11T21:40:37.600Z,48.25
2023-02-11T21:43:03.882Z,49.08
2023-02-11T21:45:32.303Z,47.60
2023-02-11T21:47:58.728Z,47.61
2023-02-11T21:50:25.001Z,48.08
2023-02-11T21:52:51.292Z,47.35
2023-02-11T21:55:17.558Z,48.06
2023-02-11T21:57:43.838Z,48.11
2023-02-11T22:00:10.128Z,48.20
2023-02-11T22:02:36.454Z,47.08
2023-02-11T22:05:02.824Z,47.33
2023-02-11T22:07:29.221Z,46.47
2023-02-11T22:09:55.503Z,47.00
2023-02-11T22:12:21.783Z,46.30
2023-02-11T22:14:48.083Z,46.97
2023-02-11T22:17:14.392Z,46.16
2023-02-11T22:19:40.734Z,46.61
2023-02-11T22:22:07.030Z,47.12
2023-02-11T22:24:33.297Z,45.81
2023-02-11T22:26:59.565Z,46.02
2023-02-11T22:29:25.833Z,46.66
2023-02-11T22:31:52.116Z,45.87
2023-02-11T22:34:18.400Z,44.68
2023-02-11T22:36:44.688Z,44.20
2023-02-11T22:39:10.969Z,44.00
2023-02-11T22:41:37.255Z,43.02
2023-02-11T22:44:03.555Z,41.46
2023-02-11T22:46:29.825Z,41.35
2023-02-11T22:48:56.115Z,41.34
2023-02-11T22:51:22.389Z,41.74
2023-02-11T22:53:48.681Z,41.68
2023-02-11T22:56:15.909Z,42.04
2023-02-11T22:58:42.373Z,40.67
2023-02-11T23:01:08.628Z,40.55
2023-02-11T23:03:34.897Z,40.40
2023-02-11T23:06:01.191Z,40.18
2023-02-11T23:08:27.465Z,39.90
2023-02-11T23:10:53.823Z,40.58
2023-02-11T23:13:20.159Z,40.65
2023-02-11T23:15:46.415Z,39.84
2023-02-11T23:18:12.682Z,39.35
2023-02-11T23:20:38.949Z,39.39
2023-02-11T23:23:05.264Z,37.90
2023-02-11T23:25:31.534Z,36.74
2023-02-11T23:27:57.843Z,35.64
2023-02-11T23:30:24.145Z,35.15
2023-02-11T23:32:50.417Z,35.30
2023-02-11T23:35:16.674Z,35.38
2023-02-11T23:37:43.013Z,34.88
2023-02-11T23:40:09.335Z,35.06
2023-02-11T23:42:35.630Z,34.54
2023-02-11T23:45:01.903Z,34.28
2023-02-11T23:47:28.282Z,34.29
2023-02-11T23:49:54.569Z,32.99
2023-02-11T23:52:20.832Z,32.60
2023-02-11T23:54:47.117Z,32.90
2023-02-11T23:57:13.377Z,32.80
2023-02-11T23:59:39.633Z,33.06
